Time;durP1;ratioP1;P1;durP2;ratioP2;P2;SDS_P1;SDS_P2;PMS_P1;PMS_P2;Temp;Humidity;BMP_temperature;BMP_pressure;BME280_temperature;BME280_humidity;BME280_pressure;Samples;Min_cycle;Max_cycle;Signal;HPM_P1;HPM_P2
2024/04/07 00:01:31;;;;;;;9.00;2.07;;;;;;;16.51;100.00;100740.66;5053440;28;20200;-75
2024/04/07 00:04:01;;;;;;;9.87;1.97;;;;;;;15.41;100.00;100528.75;5043722;28;20219;-77
2024/04/07 00:06:31;;;;;;;6.83;1.83;;;;;;;16.06;100.00;100613.38;5057076;28;20481;-76
2024/04/07 00:08:57;;;;;;;9.60;1.63;;;;;;;15.72;100.00;100568.06;5039585;28;20944;-76
2024/04/07 00:11:23;;;;;;;11.60;2.33;;;;;;;15.36;100.00;100491.63;5039314;28;20450;-76
2024/04/07 00:13:48;;;;;;;8.80;2.03;;;;;;;15.32;100.00;100481.53;5044180;28;21685;-76
2024/04/07 00:16:14;;;;;;;11.90;1.90;;;;;;;15.69;100.00;100530.69;5036717;28;20707;-78
2024/04/07 00:18:39;;;;;;;6.60;2.00;;;;;;;15.69;100.00;100535.28;5041140;28;20188;-76
2024/04/07 00:21:05;;;;;;;8.60;1.90;;;;;;;16.93;100.00;100749.34;5040038;28;20187;-76
2024/04/07 00:23:32;;;;;;;13.53;2.10;;;;;;;15.04;100.00;100441.78;5041940;28;20202;-76
2024/04/07 00:25:58;;;;;;;9.10;2.10;;;;;;;15.40;100.00;100507.38;5042394;28;20918;-76
2024/04/07 00:28:24;;;;;;;6.57;1.80;;;;;;;14.84;100.00;100432.19;5045148;28;20462;-76
2024/04/07 00:30:49;;;;;;;7.50;1.77;;;;;;;14.88;100.00;100486.53;5042553;28;20477;-76
2024/04/07 00:33:15;;;;;;;7.37;1.97;;;;;;;16.52;100.00;100750.44;5040000;28;20829;-76
2024/04/07 00:35:52;;;;;;;7.90;2.17;;;;;;;16.57;100.00;100782.19;5040043;28;20461;-76
2024/04/07 00:38:17;;;;;;;8.50;2.03;;;;;;;15.65;100.00;100643.06;5041628;28;20224;-76
2024/04/07 00:40:43;;;;;;;9.80;2.07;;;;;;;14.89;100.00;100547.56;5040507;28;20506;-76
2024/04/07 00:43:08;;;;;;;9.23;2.30;;;;;;;13.71;100.00;100338.84;5042442;28;20206;-76
2024/04/07 00:45:35;;;;;;;8.57;2.23;;;;;;;15.34;100.00;100636.16;5039170;28;20674;-76
2024/04/07 00:48:00;;;;;;;11.37;2.73;;;;;;;14.90;100.00;100547.34;5037796;28;20264;-77
2024/04/07 00:50:26;;;;;;;9.60;2.50;;;;;;;14.10;100.00;100412.09;5041563;28;21137;-76
2024/04/07 00:52:53;;;;;;;7.90;2.00;;;;;;;15.27;100.00;100593.03;5036649;28;20218;-76
2024/04/07 00:55:19;;;;;;;7.70;2.60;;;;;;;14.28;100.00;100444.34;5053922;28;20608;-76
2024/04/07 00:57:44;;;;;;;8.70;2.20;;;;;;;15.15;100.00;100603.81;5038873;28;21793;-76
2024/04/07 01:00:10;;;;;;;9.60;2.27;;;;;;;14.45;100.00;100518.16;5042510;28;20697;-76
2024/04/07 01:02:36;;;;;;;7.73;2.27;;;;;;;14.65;100.00;100571.84;5043986;28;20228;-77
2024/04/07 01:05:01;;;;;;;6.70;1.90;;;;;;;14.74;100.00;100539.94;5040374;28;20440;-76
2024/04/07 01:07:27;;;;;;;6.67;2.37;;;;;;;15.68;100.00;100720.19;5037289;28;20283;-76
2024/04/07 01:09:54;;;;;;;9.03;1.83;;;;;;;14.86;100.00;100605.56;5040697;28;20253;-76
2024/04/07 01:12:20;;;;;;;11.70;2.60;;;;;;;14.64;100.00;100578.31;5038630;28;20462;-76
2024/04/07 01:14:45;;;;;;;6.60;2.03;;;;;;;13.60;100.00;100434.81;5042942;28;20440;-76
2024/04/07 01:17:11;;;;;;;7.93;2.20;;;;;;;13.90;100.00;100448.25;5037010;28;20249;-76
2024/04/07 01:19:36;;;;;;;10.77;2.30;;;;;;;14.54;100.00;100567.25;5040253;28;20215;-76
2024/04/07 01:22:02;;;;;;;8.57;2.00;;;;;;;14.06;100.00;100471.06;5038484;28;20206;-77
2024/04/07 01:24:27;;;;;;;8.57;2.13;;;;;;;14.73;100.00;100562.59;5041886;28;20622;-77
2024/04/07 01:26:53;;;;;;;7.60;1.80;;;;;;;14.29;100.00;100478.38;5035770;28;20271;-76
2024/04/07 01:29:18;;;;;;;8.87;2.10;;;;;;;14.08;100.00;100441.97;5043051;28;20188;-76
2024/04/07 01:31:44;;;;;;;7.53;2.20;;;;;;;16.08;100.00;100787.91;5042581;28;20208;-76
2024/04/07 01:34:09;;;;;;;13.30;2.27;;;;;;;14.72;100.00;100584.41;5036699;28;20278;-76
2024/04/07 01:36:35;;;;;;;8.40;2.17;;;;;;;14.35;100.00;100528.72;5055150;28;20652;-76
2024/04/07 01:39:01;;;;;;;6.93;1.73;;;;;;;15.25;100.00;100718.63;5040792;28;20188;-77
2024/04/07 01:41:26;;;;;;;8.67;1.90;;;;;;;15.66;100.00;100781.78;5057952;28;20561;-76
2024/04/07 01:43:51;;;;;;;16.33;2.17;;;;;;;14.57;100.00;100564.09;5041412;28;20657;-76
2024/04/07 01:46:17;;;;;;;8.40;2.00;;;;;;;15.53;100.00;100701.72;5039935;28;20192;-77
2024/04/07 01:48:42;;;;;;;13.90;2.20;;;;;;;15.87;100.00;100715.50;5038726;28;20234;-76
2024/04/07 01:51:08;;;;;;;13.60;2.53;;;;;;;15.36;100.00;100667.28;5041787;28;20180;-76
2024/04/07 01:53:33;;;;;;;11.13;2.67;;;;;;;15.51;100.00;100691.16;5037626;28;20261;-76
2024/04/07 01:55:59;;;;;;;8.60;1.80;;;;;;;15.53;100.00;100696.31;5043125;28;20189;-76
2024/04/07 01:58:24;;;;;;;7.67;1.80;;;;;;;14.86;100.00;100581.25;5038513;28;20288;-77
2024/04/07 02:00:50;;;;;;;6.93;2.13;;;;;;;15.19;100.00;100588.00;5039431;28;20532;-77
2024/04/07 02:03:16;;;;;;;11.93;2.20;;;;;;;16.49;100.00;100778.81;5036618;28;20511;-76
2024/04/07 02:05:41;;;;;;;9.33;2.07;;;;;;;16.01;100.00;100714.19;5037595;28;20187;-77
2024/04/07 02:08:07;;;;;;;9.77;1.37;;;;;;;15.29;100.00;100604.41;5039910;28;20208;-77
2024/04/07 02:10:33;;;;;;;7.10;1.53;;;;;;;15.21;100.00;100588.56;5040068;28;21176;-77
2024/04/07 02:12:58;;;;;;;9.37;1.70;;;;;;;15.31;100.00;100623.13;5039775;28;20455;-77
2024/04/07 02:15:24;;;;;;;6.83;1.43;;;;;;;15.23;100.00;100621.56;5036255;28;20208;-78
2024/04/07 02:17:50;;;;;;;10.93;1.70;;;;;;;15.65;100.00;100707.97;5040659;28;20180;-78
2024/04/07 02:20:16;;;;;;;11.53;1.60;;;;;;;15.18;100.00;100670.09;5040415;28;20964;-78
2024/04/07 02:22:42;;;;;;;6.70;1.77;;;;;;;16.67;100.00;100915.09;5040830;28;20468;-78
2024/04/07 02:25:07;;;;;;;7.27;1.80;;;;;;;14.80;100.00;100611.09;5039517;28;20440;-77
2024/04/07 02:27:33;;;;;;;7.90;1.37;;;;;;;15.15;100.00;100679.47;5035071;28;20504;-77
2024/04/07 02:29:58;;;;;;;12.00;2.20;;;;;;;15.30;100.00;100700.66;5037045;28;20273;-77
2024/04/07 02:32:24;;;;;;;14.70;1.87;;;;;;;14.40;100.00;100557.69;5035202;28;20300;-77
2024/04/07 02:34:49;;;;;;;8.43;1.63;;;;;;;14.82;100.00;100677.31;5038627;28;20755;-77
2024/04/07 02:37:15;;;;;;;7.80;1.70;;;;;;;15.77;100.00;100810.75;5069339;22;20168;-82
2024/04/07 02:39:41;;;;;;;5.67;1.30;;;;;;;15.76;100.00;100838.81;5058564;28;20201;-81
2024/04/07 02:42:07;;;;;;;7.20;1.53;;;;;;;15.95;100.00;100891.78;5059090;22;20509;-70
2024/04/07 02:50:00;;;;;;;7.90;1.40;;;;;;;15.75;100.00;100921.03;5011348;28;21131;-70
2024/04/07 02:52:26;;;;;;;10.27;1.70;;;;;;;15.65;100.00;100916.16;5002199;28;20432;-70
2024/04/07 02:54:51;;;;;;;7.10;1.33;;;;;;;15.34;100.00;100885.59;5017986;28;20184;-70
2024/04/07 02:57:17;;;;;;;7.07;1.40;;;;;;;15.57;100.00;100916.47;5017849;28;20201;-69
2024/04/07 02:59:42;;;;;;;6.63;1.30;;;;;;;15.57;100.00;100914.59;5017841;28;20192;-70
2024/04/07 03:02:07;;;;;;;9.97;1.50;;;;;;;15.58;100.00;100950.56;5016547;28;20194;-70
2024/04/07 03:04:33;;;;;;;5.83;1.20;;;;;;;15.44;100.00;100940.97;5015727;28;20231;-69
2024/04/07 03:07:00;;;;;;;7.40;1.40;;;;;;;15.41;100.00;100947.66;5014675;28;20209;-70
2024/04/07 03:09:27;;;;;;;6.47;1.73;;;;;;;15.50;100.00;100983.31;5015735;28;20195;-70
2024/04/07 03:11:53;;;;;;;6.80;1.53;;;;;;;15.40;100.00;100947.91;5013739;28;20970;-70
2024/04/07 03:14:19;;;;;;;11.00;1.60;;;;;;;15.01;100.00;100904.09;4999240;28;20443;-70
2024/04/07 03:16:45;;;;;;;8.30;1.20;;;;;;;15.32;100.00;100970.66;5017565;28;20197;-70
2024/04/07 03:19:11;;;;;;;7.13;1.40;;;;;;;15.35;100.00;100978.31;4999322;28;20439;-70
2024/04/07 03:21:36;;;;;;;7.10;1.13;;;;;;;15.14;100.00;100964.22;4998634;28;20509;-70
2024/04/07 03:24:02;;;;;;;8.80;1.40;;;;;;;15.08;100.00;100984.03;4999080;28;20247;-70
2024/04/07 03:26:27;;;;;;;9.40;1.80;;;;;;;15.17;100.00;101091.81;5015706;28;20331;-70
2024/04/07 03:28:53;;;;;;;10.07;1.70;;;;;;;15.09;100.00;101142.34;5014884;28;20281;-70
2024/04/07 03:31:18;;;;;;;8.07;1.20;;;;;;;15.11;100.00;101109.72;5015856;28;21105;-70
2024/04/07 03:33:47;;;;;;;6.23;1.43;;;;;;;15.12;100.00;101054.63;5012732;28;20390;-70
2024/04/07 03:36:13;;;;;;;8.33;1.37;;;;;;;14.96;100.00;100960.69;5013988;28;20610;-70
2024/04/07 03:38:38;;;;;;;6.83;1.40;;;;;;;14.68;100.00;100924.22;5009211;28;20447;-70
2024/04/07 03:41:04;;;;;;;5.67;1.30;;;;;;;15.02;100.00;101044.34;5016607;28;20191;-70
2024/04/07 03:43:29;;;;;;;5.60;1.23;;;;;;;15.22;100.00;101054.97;5010536;28;20204;-70
2024/04/07 03:46:00;;;;;;;7.63;1.50;;;;;;;15.19;100.00;101079.72;5013520;28;20293;-70
2024/04/07 03:48:25;;;;;;;5.80;1.20;;;;;;;15.26;100.00;101099.38;5017517;28;20204;-70
2024/04/07 03:50:51;;;;;;;5.57;1.10;;;;;;;15.22;100.00;101089.28;4998089;28;20818;-70
2024/04/07 03:53:16;;;;;;;8.33;1.27;;;;;;;15.14;100.00;101084.97;5017204;28;20291;-70
2024/04/07 03:55:41;;;;;;;7.53;1.23;;;;;;;15.19;100.00;101090.53;5014906;28;20204;-70
2024/04/07 03:58:07;;;;;;;8.20;1.63;;;;;;;15.25;100.00;101105.84;5015046;28;20207;-71
2024/04/07 04:00:33;;;;;;;7.23;1.23;;;;;;;15.00;100.00;101110.44;5015797;28;20280;-71
2024/04/07 04:02:59;;;;;;;6.60;1.00;;;;;;;14.81;100.00;101063.66;4992977;28;20196;-71
2024/04/07 04:05:24;;;;;;;5.33;1.10;;;;;;;14.61;100.00;101012.53;5014334;28;20436;-71
2024/04/07 04:07:49;;;;;;;8.30;1.00;;;;;;;13.90;100.00;100882.34;5014759;28;20404;-71
2024/04/07 04:10:15;;;;;;;6.43;1.30;;;;;;;14.77;100.00;100968.78;5017742;28;20196;-71
2024/04/07 04:12:40;;;;;;;5.77;0.97;;;;;;;13.93;100.00;100754.34;5013107;28;20180;-70
2024/04/07 04:15:06;;;;;;;4.63;0.70;;;;;;;13.82;100.00;100737.03;5015978;28;20252;-71
2024/04/07 04:17:32;;;;;;;5.37;0.93;;;;;;;14.59;100.00;100775.22;5015364;28;20216;-72
2024/04/07 04:19:57;;;;;;;6.97;1.70;;;;;;;14.65;100.00;100736.53;5013563;28;20202;-71
2024/04/07 04:22:22;;;;;;;5.50;1.00;;;;;;;14.53;100.00;100686.25;5015153;28;20191;-71
2024/04/07 04:24:48;;;;;;;6.90;1.13;;;;;;;14.40;100.00;100630.53;5000947;28;22722;-71
2024/04/07 04:27:14;;;;;;;6.50;1.17;;;;;;;14.08;100.00;100498.59;4997466;28;20239;-71
2024/04/07 04:29:40;;;;;;;7.30;1.00;;;;;;;13.25;100.00;100410.34;5013027;28;22725;-71
2024/04/07 04:32:06;;;;;;;7.23;1.30;;;;;;;13.57;100.00;100454.13;5013092;28;22500;-71
2024/04/07 04:34:34;;;;;;;7.20;1.20;;;;;;;13.86;100.00;100521.75;5013173;28;20188;-70
2024/04/07 04:37:00;;;;;;;5.83;1.00;;;;;;;13.68;100.00;100479.47;4992982;28;20201;-71
2024/04/07 04:39:26;;;;;;;6.80;0.93;;;;;;;13.71;100.00;100511.34;5011095;28;20524;-71
2024/04/07 04:41:52;;;;;;;6.70;1.27;;;;;;;13.87;100.00;100523.38;5012616;28;20449;-72
2024/04/07 04:44:17;;;;;;;5.07;1.23;;;;;;;13.88;100.00;100516.94;5014820;28;20999;-71
2024/04/07 04:46:44;;;;;;;6.00;1.13;;;;;;;13.94;100.00;100548.38;5011320;28;20212;-71
2024/04/07 04:49:14;;;;;;;7.13;1.17;;;;;;;13.88;100.00;100543.91;5014768;28;20188;-71
2024/04/07 04:51:40;;;;;;;6.00;1.23;;;;;;;13.65;100.00;100505.00;5016013;28;20432;-71
2024/04/07 04:54:05;;;;;;;5.93;1.10;;;;;;;13.89;100.00;100537.47;5010478;28;20857;-71
2024/04/07 04:56:31;;;;;;;7.27;1.30;;;;;;;13.66;100.00;100513.94;5015112;28;20199;-70
2024/04/07 04:58:57;;;;;;;8.00;1.20;;;;;;;13.00;100.00;100405.09;5015809;28;20703;-71
2024/04/07 05:01:27;;;;;;;6.43;1.40;;;;;;;13.72;100.00;100537.28;4999917;28;20605;-71
2024/04/07 05:03:53;;;;;;;7.23;1.20;;;;;;;13.68;100.00;100546.84;5016258;28;20439;-70
2024/04/07 05:06:19;;;;;;;6.40;1.13;;;;;;;13.46;100.00;100508.78;5014459;28;20514;-71
2024/04/07 05:08:45;;;;;;;8.97;1.43;;;;;;;13.67;100.00;100539.81;4998810;28;21066;-71
2024/04/07 05:11:11;;;;;;;6.80;1.17;;;;;;;13.56;100.00;100512.56;5011966;28;20435;-70
2024/04/07 05:13:37;;;;;;;6.43;1.10;;;;;;;13.69;100.00;100522.38;5014185;28;20481;-71
2024/04/07 05:16:03;;;;;;;5.07;0.90;;;;;;;13.41;100.00;100477.13;5016347;28;20181;-71
2024/04/07 05:18:29;;;;;;;6.23;1.03;;;;;;;13.71;100.00;100558.03;5009657;28;20447;-71
2024/04/07 05:20:56;;;;;;;9.93;1.07;;;;;;;13.65;100.00;100550.81;5008443;28;20450;-70
2024/04/07 05:23:24;;;;;;;7.20;1.13;;;;;;;13.82;100.00;100594.16;5010595;28;20489;-71
2024/04/07 05:25:50;;;;;;;7.17;1.23;;;;;;;13.81;100.00;100595.22;5012360;28;20463;-71
2024/04/07 05:28:15;;;;;;;5.57;1.07;;;;;;;13.88;100.00;100604.03;5003435;28;20857;-71
2024/04/07 05:30:41;;;;;;;6.47;1.17;;;;;;;13.65;100.00;100574.25;5018333;28;20439;-70
2024/04/07 05:33:06;;;;;;;7.50;1.40;;;;;;;13.97;100.00;100613.47;5012132;28;20185;-70
2024/04/07 05:35:32;;;;;;;6.03;1.40;;;;;;;13.90;100.00;100604.63;4999908;28;20623;-71
2024/04/07 05:37:58;;;;;;;5.83;1.13;;;;;;;13.92;100.00;100607.94;4996163;28;20706;-71
2024/04/07 05:40:24;;;;;;;7.13;1.20;;;;;;;13.68;100.00;100588.13;5012736;28;20462;-70
2024/04/07 05:42:51;;;;;;;6.10;1.10;;;;;;;13.77;100.00;100589.47;5013923;28;20465;-69
2024/04/07 05:45:16;;;;;;;6.03;1.20;;;;;;;13.93;100.00;100641.94;5010430;28;20185;-70
2024/04/07 05:47:42;;;;;;;7.30;1.27;;;;;;;14.03;100.00;100644.13;5016255;28;20474;-71
2024/04/07 05:50:07;;;;;;;9.77;1.60;;;;;;;13.85;100.00;100639.53;4996581;28;20185;-70
2024/04/07 05:52:33;;;;;;;7.47;1.27;;;;;;;13.93;100.00;100647.31;5011807;28;21201;-70
2024/04/07 05:54:58;;;;;;;6.93;1.10;;;;;;;13.94;100.00;100658.91;5014024;28;20473;-71
2024/04/07 05:57:24;;;;;;;6.10;1.23;;;;;;;13.95;100.00;100666.81;5016314;28;20207;-70
2024/04/07 05:59:49;;;;;;;8.40;1.47;;;;;;;14.14;100.00;100697.25;4998722;28;20227;-71
2024/04/07 06:02:15;;;;;;;6.30;1.80;;;;;;;13.84;100.00;100670.25;5013077;28;20183;-71
2024/04/07 06:04:41;;;;;;;7.60;1.27;;;;;;;14.17;100.00;100709.47;5016671;28;20188;-70
2024/04/07 06:07:06;;;;;;;7.23;1.50;;;;;;;14.13;100.00;100706.41;5016116;28;20247;-70
2024/04/07 06:09:32;;;;;;;8.73;1.33;;;;;;;14.02;100.00;100699.91;5014954;28;20431;-70
2024/04/07 06:11:57;;;;;;;11.30;4.03;;;;;;;13.93;100.00;100700.44;5016255;28;20189;-72
2024/04/07 06:14:23;;;;;;;12.97;6.10;;;;;;;13.86;100.00;100694.31;5015344;28;20184;-70
2024/04/07 06:16:48;;;;;;;6.47;2.20;;;;;;;14.33;100.00;100727.75;4998969;28;20571;-70
2024/04/07 06:19:14;;;;;;;5.90;1.17;;;;;;;13.94;100.00;100713.69;5002515;28;20286;-71
2024/04/07 06:21:39;;;;;;;9.47;1.10;;;;;;;14.26;100.00;100753.97;5017825;28;20189;-71
2024/04/07 06:24:05;;;;;;;6.40;1.23;;;;;;;14.17;100.00;100748.06;5021138;28;20283;-70
2024/04/07 06:26:30;;;;;;;8.13;1.10;;;;;;;14.12;100.00;100734.44;5020331;28;20204;-71
2024/04/07 06:28:56;;;;;;;6.43;1.13;;;;;;;14.31;100.00;100789.22;5019815;28;20234;-70
2024/04/07 06:31:22;;;;;;;5.90;1.13;;;;;;;14.35;100.00;100784.19;5005526;28;20182;-71
2024/04/07 06:33:47;;;;;;;7.20;1.10;;;;;;;13.51;100.00;100665.19;5018587;28;20195;-70
2024/04/07 06:36:12;;;;;;;7.10;1.20;;;;;;;14.11;100.00;100764.34;5018333;28;20773;-70
2024/04/07 06:38:38;;;;;;;5.60;1.00;;;;;;;13.91;100.00;100738.38;5001516;28;20208;-71
2024/04/07 06:41:04;;;;;;;5.20;1.10;;;;;;;14.24;100.00;100791.19;5019258;28;20199;-71
2024/04/07 06:43:29;;;;;;;5.40;1.00;;;;;;;14.08;100.00;100762.91;5019554;28;20258;-71
2024/04/07 06:45:57;;;;;;;9.10;1.13;;;;;;;14.35;100.00;100809.31;5002086;28;20185;-71
2024/04/07 06:48:23;;;;;;;6.00;1.10;;;;;;;14.25;100.00;100780.16;5020676;28;20643;-71
2024/04/07 06:50:48;;;;;;;13.70;1.20;;;;;;;14.19;100.00;100764.03;5011891;28;20458;-70
2024/04/07 06:53:13;;;;;;;6.70;1.10;;;;;;;14.40;100.00;100817.53;5013889;28;20196;-70
2024/04/07 06:55:39;;;;;;;5.33;0.90;;;;;;;14.63;100.00;100854.69;4994454;28;20188;-71
2024/04/07 06:58:04;;;;;;;5.15;0.90;;;;;;;14.31;100.00;100801.88;5009978;28;20197;-70
2024/04/07 07:00:30;;;;;;;5.63;1.43;;;;;;;14.68;100.00;100875.63;5012901;28;20520;-69
2024/04/07 07:02:55;;;;;;;6.37;0.93;;;;;;;14.85;100.00;100921.75;5013337;28;20641;-71
2024/04/07 07:05:22;;;;;;;5.07;0.90;;;;;;;13.46;100.00;100716.25;5009911;28;20192;-71
2024/04/07 07:07:48;;;;;;;5.60;1.10;;;;;;;14.58;100.00;100889.66;5013336;28;20218;-71
2024/04/07 07:10:13;;;;;;;5.77;1.03;;;;;;;14.72;100.00;100928.09;4998816;28;20435;-71
2024/04/07 07:12:39;;;;;;;4.30;0.80;;;;;;;14.80;100.00;100945.91;5015177;28;20261;-71
2024/04/07 07:15:05;;;;;;;6.10;1.20;;;;;;;14.74;100.00;100936.00;5016167;28;20185;-71
2024/04/07 07:17:31;;;;;;;5.90;0.80;;;;;;;14.62;100.00;100917.00;4998266;28;20208;-71
2024/04/07 07:19:56;;;;;;;6.30;0.90;;;;;;;14.72;100.00;100928.09;5014512;28;20480;-71
2024/04/07 07:22:22;;;;;;;6.85;0.95;;;;;;;14.97;100.00;100952.34;4996923;28;20235;-70
2024/04/07 07:24:47;;;;;;;5.67;0.87;;;;;;;15.08;100.00;100908.38;5014066;28;20607;-71
2024/04/07 07:27:13;;;;;;;6.70;1.23;;;;;;;15.05;100.00;100900.75;4999780;28;20217;-71
2024/04/07 07:29:39;;;;;;;8.73;1.20;;;;;;;15.24;100.00;100920.44;5000355;28;20196;-70
2024/04/07 07:32:05;;;;;;;9.50;1.57;;;;;;;14.67;100.00;100838.88;5014776;28;20493;-71
2024/04/07 07:34:31;;;;;;;5.33;0.80;;;;;;;15.28;100.00;100950.56;5013909;28;20193;-70
2024/04/07 07:36:56;;;;;;;6.20;0.90;;;;;;;15.17;100.00;100927.81;5016033;28;20871;-70
2024/04/07 07:39:21;;;;;;;5.30;1.30;;;;;;;15.15;100.00;100921.81;5008891;28;20188;-70
2024/04/07 07:41:49;;;;;;;6.00;1.13;;;;;;;15.35;100.00;100949.41;5012582;28;20682;-70
2024/04/07 07:44:15;;;;;;;8.33;1.37;;;;;;;15.41;100.00;100944.97;5015134;28;20188;-70
2024/04/07 07:46:40;;;;;;;5.90;1.10;;;;;;;15.53;100.00;100959.34;5015059;28;20475;-69
2024/04/07 07:49:06;;;;;;;6.87;0.90;;;;;;;15.32;100.00;100913.91;4996884;28;20199;-70
2024/04/07 07:51:32;;;;;;;7.40;1.03;;;;;;;15.43;100.00;100963.66;5015681;28;20197;-70
2024/04/07 07:53:58;;;;;;;5.60;1.17;;;;;;;15.63;100.00;100975.03;5014697;28;20458;-70
2024/04/07 07:56:23;;;;;;;5.60;1.17;;;;;;;15.61;100.00;100990.66;5013869;28;21067;-70
2024/04/07 07:58:49;;;;;;;8.30;1.00;;;;;;;15.71;100.00;100992.88;5009415;28;20570;-70
2024/04/07 08:01:14;;;;;;;8.17;1.60;;;;;;;15.55;100.00;100969.94;5014845;28;20224;-70
2024/04/07 08:03:40;;;;;;;6.80;1.00;;;;;;;15.73;100.00;101010.47;5013021;28;20442;-70
2024/04/07 08:06:07;;;;;;;5.80;1.27;;;;;;;15.56;100.00;100974.28;4993895;28;20208;-70
2024/04/07 08:08:32;;;;;;;7.70;1.37;;;;;;;15.87;100.00;100992.19;5003611;28;20227;-70
2024/04/07 08:10:58;;;;;;;7.80;1.07;;;;;;;15.91;100.00;101025.00;5002052;28;20500;-70
2024/04/07 08:13:23;;;;;;;6.63;1.10;;;;;;;15.97;100.00;101033.06;4997418;28;20227;-70
2024/04/07 08:15:49;;;;;;;6.80;1.10;;;;;;;15.85;100.00;101026.75;5016507;28;20547;-70
2024/04/07 08:18:15;;;;;;;6.03;1.10;;;;;;;15.81;100.00;101034.50;4999159;28;20193;-70
2024/04/07 08:20:42;;;;;;;6.73;1.00;;;;;;;15.97;100.00;101029.53;5013572;28;20205;-70
2024/04/07 08:23:08;;;;;;;7.70;1.20;;;;;;;16.00;100.00;101034.47;5013695;28;20674;-70
2024/04/07 08:25:33;;;;;;;7.70;1.20;;;;;;;16.08;100.00;101057.66;5016165;28;20443;-70
2024/04/07 08:28:00;;;;;;;4.70;0.97;;;;;;;16.10;100.00;101079.91;5000060;28;20212;-70
2024/04/07 08:30:26;;;;;;;6.07;1.00;;;;;;;15.66;100.00;100984.56;5017322;28;20443;-70
2024/04/07 08:32:51;;;;;;;6.10;1.00;;;;;;;16.27;100.00;101070.91;5009950;28;20805;-70
2024/04/07 08:35:17;;;;;;;5.00;0.90;;;;;;;16.16;100.00;101060.88;5015540;28;20525;-70
2024/04/07 08:37:42;;;;;;;6.67;1.13;;;;;;;16.01;100.00;101061.28;5012176;28;20204;-70
2024/04/07 08:40:08;;;;;;;6.73;1.10;;;;;;;16.20;100.00;101077.47;4997283;28;20191;-70
2024/04/07 08:42:34;;;;;;;6.20;1.33;;;;;;;16.43;100.00;101095.66;5016420;28;20619;-71
2024/04/07 08:45:03;;;;;;;4.97;0.97;;;;;;;16.20;100.00;101096.41;5018636;28;20185;-70
2024/04/07 08:47:29;;;;;;;11.80;1.70;;;;;;;16.28;100.00;101123.16;5019718;28;20208;-70
2024/04/07 08:49:59;;;;;;;5.93;1.10;;;;;;;16.27;100.00;101100.69;5012244;28;20455;-70
2024/04/07 08:52:27;;;;;;;6.20;1.20;;;;;;;16.33;100.00;101087.28;5011591;28;20200;-70
2024/04/07 08:54:52;;;;;;;6.07;1.20;;;;;;;16.13;100.00;101103.81;5012878;28;20453;-71
2024/04/07 08:57:18;;;;;;;5.17;1.03;;;;;;;16.33;100.00;101117.88;5011633;28;20458;-70
2024/04/07 08:59:50;;;;;;;6.30;1.30;;;;;;;16.51;100.00;101144.06;5010796;28;20210;-70
2024/04/07 09:02:16;;;;;;;7.90;1.27;;;;;;;16.40;100.00;101121.34;5013137;28;20447;-71
2024/04/07 09:04:42;;;;;;;5.37;1.00;;;;;;;16.62;100.00;101129.75;5012738;28;20449;-70
2024/04/07 09:07:07;;;;;;;6.50;1.00;;;;;;;16.43;100.00;101145.25;5011508;28;20475;-70
2024/04/07 09:09:34;;;;;;;6.10;1.07;;;;;;;16.87;100.00;101155.88;5001863;28;22971;-70
2024/04/07 09:12:00;;;;;;;6.70;1.17;;;;;;;16.71;100.00;101165.44;5015432;28;20498;-70
2024/04/07 09:14:27;;;;;;;6.20;1.37;;;;;;;16.53;100.00;101150.09;5013138;28;20439;-70
2024/04/07 09:17:05;;;;;;;5.97;1.20;;;;;;;16.80;100.00;101220.97;5007567;28;20454;-70
2024/04/07 09:19:35;;;;;;;6.27;1.00;;;;;;;16.91;100.00;101265.41;5009869;28;20455;-70
2024/04/07 09:22:02;;;;;;;7.27;1.07;;;;;;;16.83;100.00;101239.47;5013916;28;20463;-70
2024/04/07 09:24:30;;;;;;;6.60;1.37;;;;;;;16.83;100.00;101295.53;5015011;28;20823;-70
2024/04/07 09:26:59;;;;;;;10.33;1.50;;;;;;;16.89;100.00;101275.66;5014783;28;20548;-70
2024/04/07 09:29:31;;;;;;;7.80;1.23;;;;;;;16.99;100.00;101304.94;5012012;28;20435;-70
2024/04/07 09:31:58;;;;;;;7.17;1.17;;;;;;;17.01;100.00;101306.34;5013183;28;20457;-70
2024/04/07 09:34:24;;;;;;;6.13;1.20;;;;;;;16.97;100.00;101288.06;5005341;28;20749;-70
2024/04/07 09:36:49;;;;;;;7.77;1.50;;;;;;;17.03;100.00;101328.59;5013652;28;20466;-70
2024/04/07 09:39:15;;;;;;;5.63;1.10;;;;;;;16.92;100.00;101275.19;5008230;28;20667;-70
2024/04/07 09:41:45;;;;;;;8.60;1.27;;;;;;;17.07;100.00;101304.59;5014354;28;21413;-70
2024/04/07 09:44:14;;;;;;;5.47;1.20;;;;;;;16.98;100.00;101312.22;5013392;28;20695;-70
2024/04/07 09:46:40;;;;;;;13.93;1.40;;;;;;;16.95;100.00;101301.81;5011129;28;20455;-71
2024/04/07 09:49:09;;;;;;;8.43;1.30;;;;;;;16.92;100.00;101297.72;4996676;28;20445;-70
2024/04/07 09:51:44;;;;;;;6.50;1.13;;;;;;;17.07;100.00;101323.56;5010249;28;20435;-70
2024/04/07 09:54:44;;;;;;;6.87;1.00;;;;;;;17.24;100.00;101318.31;5012412;28;20576;-70
2024/04/07 09:57:11;;;;;;;7.83;1.30;;;;;;;17.36;100.00;101360.69;5012213;28;20458;-70
2024/04/07 09:59:42;;;;;;;5.80;1.00;;;;;;;17.47;100.00;101369.88;5018296;28;20434;-69
2024/04/07 10:02:09;;;;;;;7.87;1.20;;;;;;;16.79;100.00;101283.53;4999956;28;20431;-69
2024/04/07 10:04:34;;;;;;;7.63;1.00;;;;;;;17.50;100.00;101390.28;5014801;28;20438;-68
2024/04/07 10:07:04;;;;;;;5.53;1.10;;;;;;;17.60;100.00;101390.56;5015091;28;20470;-68
2024/04/07 10:09:30;;;;;;;6.40;1.17;;;;;;;17.36;100.00;101330.84;5014414;28;20832;-68
2024/04/07 10:11:56;;;;;;;6.50;1.20;;;;;;;17.57;100.00;101359.31;4990050;28;20447;-69
2024/04/07 10:14:22;;;;;;;9.47;1.47;;;;;;;17.79;100.00;101396.75;5017653;28;20640;-68
2024/04/07 10:16:50;;;;;;;6.13;1.17;;;;;;;17.54;100.00;101424.06;4994379;28;20212;-69
2024/04/07 10:19:24;;;;;;;8.60;2.50;;;;;;;17.81;100.00;101451.63;4999085;28;20730;-69
2024/04/07 10:21:49;;;;;;;9.80;1.27;;;;;;;17.83;100.00;101479.38;5017572;28;20454;-68
2024/04/07 10:24:16;;;;;;;6.40;1.10;;;;;;;17.82;100.00;101461.44;5003020;28;20435;-68
2024/04/07 10:26:58;;;;;;;5.67;1.10;;;;;;;17.89;100.00;101385.34;5013204;28;20213;-69
2024/04/07 10:29:25;;;;;;;5.97;1.30;;;;;;;17.64;100.00;101380.91;5019003;28;20483;-68
2024/04/07 10:31:50;;;;;;;9.00;1.30;;;;;;;17.25;100.00;101284.72;5011392;28;20903;-69
2024/04/07 10:34:16;;;;;;;5.60;1.10;;;;;;;18.12;100.00;101313.97;4995162;28;20443;-69
2024/04/07 10:36:52;;;;;;;5.77;1.20;;;;;;;18.18;100.00;101270.41;5010454;28;20209;-70
2024/04/07 10:39:20;;;;;;;5.63;1.00;;;;;;;18.00;100.00;101265.94;5015842;28;20956;-69
2024/04/07 10:41:45;;;;;;;8.47;1.20;;;;;;;18.15;100.00;101259.19;5012419;28;20478;-69
2024/04/07 10:44:11;;;;;;;6.30;1.30;;;;;;;17.98;100.00;101229.25;5014921;28;20467;-69
2024/04/07 10:46:37;;;;;;;9.07;1.57;;;;;;;18.35;100.00;101216.16;4997996;28;20266;-70
2024/04/07 10:49:03;;;;;;;8.83;2.03;;;;;;;18.29;100.00;101258.69;5010328;28;20192;-70
2024/04/07 10:51:28;;;;;;;6.27;1.20;;;;;;;17.51;100.00;101158.72;5017338;28;20436;-70
2024/04/07 10:54:12;;;;;;;6.40;1.10;;;;;;;18.23;100.00;101242.53;5014309;28;20192;-70
2024/04/07 10:56:37;;;;;;;6.80;1.23;;;;;;;18.35;100.00;101251.47;5015441;28;20231;-70
2024/04/07 10:59:03;;;;;;;7.60;1.33;;;;;;;18.28;100.00;101232.63;5010292;28;20528;-71
2024/04/07 11:01:30;;;;;;;8.47;0.90;;;;;;;18.41;100.00;101227.97;5013575;28;20219;-70
2024/04/07 11:03:59;;;;;;;8.23;1.50;;;;;;;18.19;100.00;101196.00;5012072;28;20189;-70
2024/04/07 11:06:27;;;;;;;6.80;1.30;;;;;;;18.24;100.00;101233.31;5014058;28;20464;-71
2024/04/07 11:08:53;;;;;;;6.60;1.40;;;;;;;18.04;100.00;101172.09;5010711;28;20566;-71
2024/04/07 11:11:21;;;;;;;8.90;1.30;;;;;;;18.66;100.00;101209.44;5013699;28;20522;-70
2024/04/07 11:13:47;;;;;;;7.93;1.40;;;;;;;18.78;100.00;101227.63;5011028;28;20481;-71
2024/04/07 11:16:12;;;;;;;7.40;1.07;;;;;;;18.45;100.00;101199.25;5013919;28;20546;-72
2024/04/07 11:18:39;;;;;;;6.47;1.23;;;;;;;18.70;100.00;101221.47;4993460;28;20192;-71